createdAt,value
2022-08-24T00:05:49.484Z,25.6
2022-08-24T00:13:21.806Z,25.6
2022-08-24T00:20:54.123Z,25.7
2022-08-24T00:28:26.438Z,25.6
2022-08-24T00:35:58.753Z,25.6
2022-08-24T00:43:31.066Z,25.6
2022-08-24T00:51:03.384Z,25.7
2022-08-24T00:58:35.701Z,25.7
2022-08-24T01:06:08.019Z,25.7
2022-08-24T01:13:40.352Z,25.7
2022-08-24T01:21:12.662Z,25.7
2022-08-24T01:28:44.989Z,25.7
2022-08-24T01:36:17.342Z,25.6
2022-08-24T01:43:49.734Z,25.7
2022-08-24T01:51:22.097Z,25.7
2022-08-24T01:58:54.420Z,25.7
2022-08-24T02:06:26.744Z,25.6
2022-08-24T02:13:59.083Z,25.6
2022-08-24T02:21:32.705Z,25.6
2022-08-24T02:29:05.058Z,25.6
2022-08-24T02:36:37.402Z,25.7
2022-08-24T02:44:09.716Z,25.7
2022-08-24T02:51:44.279Z,25.6
2022-08-24T02:59:17.632Z,25.7
2022-08-24T03:06:49.955Z,25.6
2022-08-24T03:14:22.278Z,25.7
2022-08-24T03:21:54.615Z,25.6
2022-08-24T03:29:26.928Z,25.7
2022-08-24T03:36:59.470Z,25.6
2022-08-24T03:44:31.800Z,25.6
2022-08-24T03:52:04.119Z,25.6
2022-08-24T03:59:37.685Z,25.6
2022-08-24T04:07:18.491Z,25.6
2022-08-24T04:14:50.821Z,25.6
2022-08-24T04:22:23.151Z,25.6
2022-08-24T04:23:13.148Z,25.6
2022-08-24T04:24:00.631Z,25.6
2022-08-24T04:24:48.046Z,25.7
2022-08-24T04:25:35.368Z,25.7
2022-08-24T04:26:44.594Z,25.7
2022-08-24T04:27:20.006Z,25.7
2022-08-24T04:28:07.438Z,25.7
2022-08-24T04:28:54.741Z,25.7
2022-08-24T04:29:42.060Z,25.7
2022-08-24T04:30:29.508Z,25.7
2022-08-24T04:31:16.890Z,25.7
2022-08-24T04:32:04.314Z,25.8
2022-08-24T04:32:51.706Z,25.8
2022-08-24T04:33:39.022Z,25.8
2022-08-24T04:34:26.332Z,25.9
2022-08-24T04:35:13.783Z,25.8
2022-08-24T04:36:01.094Z,25.9
2022-08-24T04:36:48.410Z,25.9
2022-08-24T04:37:35.831Z,25.9
2022-08-24T04:38:23.152Z,25.9
2022-08-24T04:39:10.571Z,25.9
2022-08-24T04:39:57.961Z,25.9
2022-08-24T04:40:46.907Z,25.9
2022-08-24T04:41:34.906Z,25.9
2022-08-24T04:42:22.472Z,25.9
2022-08-24T04:43:10.419Z,25.9
2022-08-24T04:43:57.990Z,25.9
2022-08-24T04:44:45.306Z,25.9
2022-08-24T04:45:32.650Z,25.9
2022-08-24T04:46:20.072Z,25.9
2022-08-24T04:47:07.390Z,25.9
2022-08-24T04:47:54.693Z,25.9
2022-08-24T04:48:42.423Z,25.9
2022-08-24T04:49:29.826Z,25.9
2022-08-24T04:50:17.142Z,25.9
2022-08-24T04:51:05.798Z,25.9
2022-08-24T04:51:53.203Z,25.9
2022-08-24T04:52:40.545Z,25.9
2022-08-24T04:53:27.855Z,25.9
2022-08-24T04:54:15.258Z,25.9
2022-08-24T04:55:02.580Z,25.9
2022-08-24T04:55:49.912Z,25.8
2022-08-24T04:56:37.280Z,25.8
2022-08-24T04:57:24.599Z,25.8
2022-08-24T04:58:11.912Z,25.7
2022-08-24T04:58:59.344Z,25.7
2022-08-24T04:59:46.660Z,25.7
2022-08-24T05:00:34.060Z,25.6
2022-08-24T05:01:21.466Z,25.6
2022-08-24T05:02:08.918Z,25.6
2022-08-24T05:02:56.261Z,25.6
2022-08-24T05:03:43.706Z,25.6
2022-08-24T05:04:31.312Z,25.5
2022-08-24T05:05:18.665Z,25.5
2022-08-24T05:06:06.090Z,25.5
2022-08-24T05:06:54.486Z,25.5
2022-08-24T05:07:41.877Z,25.5
2022-08-24T05:08:29.317Z,25.5
2022-08-24T05:09:16.630Z,25.5
2022-08-24T05:10:03.978Z,25.4
2022-08-24T05:10:56.090Z,25.4
2022-08-24T05:11:50.028Z,25.4
2022-08-24T05:12:37.611Z,25.4
2022-08-24T05:13:24.938Z,25.4
2022-08-24T05:14:12.265Z,25.4
2022-08-24T05:14:59.601Z,25.4
2022-08-24T05:15:47.005Z,25.4
2022-08-24T05:16:34.383Z,25.4
2022-08-24T05:17:23.018Z,25.4
2022-08-24T05:18:10.440Z,25.4
2022-08-24T05:18:57.750Z,25.4
2022-08-24T05:19:45.052Z,25.4
2022-08-24T05:20:32.561Z,25.4
2022-08-24T05:21:19.871Z,25.4
2022-08-24T05:22:08.791Z,25.4
2022-08-24T05:22:58.154Z,25.4
2022-08-24T05:23:47.328Z,25.4
2022-08-24T05:24:34.648Z,25.4
2022-08-24T05:25:21.965Z,25.3
2022-08-24T05:26:09.273Z,25.3
2022-08-24T05:26:56.924Z,25.3
2022-08-24T05:27:45.226Z,25.2
2022-08-24T05:28:32.705Z,25.2
2022-08-24T05:29:20.041Z,25.2
2022-08-24T05:30:07.361Z,25.2
2022-08-24T05:30:54.720Z,25.2
2022-08-24T05:31:42.105Z,25.1
2022-08-24T05:32:29.457Z,25.1
2022-08-24T05:33:16.768Z,25.1
2022-08-24T05:34:04.076Z,25.1
2022-08-24T05:34:51.410Z,25.1
2022-08-24T05:35:38.731Z,25.1
2022-08-24T05:36:29.069Z,25.0
2022-08-24T05:37:16.461Z,25.0
2022-08-24T05:38:03.912Z,25.0
2022-08-24T05:38:51.217Z,25.0
2022-08-24T05:39:38.635Z,25.0
2022-08-24T05:40:26.041Z,25.0
2022-08-24T05:41:20.737Z,25.0
2022-08-24T05:42:08.135Z,24.9
2022-08-24T05:42:55.443Z,24.9
2022-08-24T05:43:42.749Z,25.0
2022-08-24T05:44:31.131Z,24.9
2022-08-24T05:45:18.674Z,25.0
2022-08-24T05:46:06.220Z,24.9
2022-08-24T05:46:53.584Z,24.9
2022-08-24T05:47:40.953Z,24.9
2022-08-24T05:48:28.285Z,24.9
2022-08-24T05:49:15.597Z,24.9
2022-08-24T05:50:02.902Z,24.8
2022-08-24T05:50:50.232Z,24.9
2022-08-24T05:51:37.560Z,24.8
2022-08-24T05:52:24.865Z,24.8
2022-08-24T05:53:12.199Z,24.8
2022-08-24T05:53:59.670Z,24.8
2022-08-24T05:54:46.980Z,24.8
2022-08-24T05:55:34.317Z,24.7
2022-08-24T05:56:21.735Z,24.7
2022-08-24T05:57:09.049Z,24.8
2022-08-24T05:57:56.367Z,24.8
2022-08-24T05:58:43.672Z,24.8
2022-08-24T05:59:30.980Z,24.8
2022-08-24T06:00:18.318Z,24.8
2022-08-24T06:01:05.621Z,24.8
2022-08-24T06:01:53.020Z,24.9
2022-08-24T06:02:40.496Z,24.9
2022-08-24T06:03:27.906Z,24.9
2022-08-24T06:04:15.225Z,24.9
2022-08-24T06:05:02.545Z,24.9
2022-08-24T06:05:49.864Z,24.9
2022-08-24T06:06:37.191Z,25.0
2022-08-24T06:07:24.505Z,25.0
2022-08-24T06:08:11.824Z,25.0
2022-08-24T06:08:59.130Z,25.0
2022-08-24T06:09:46.629Z,25.0
2022-08-24T06:10:36.732Z,25.0
2022-08-24T06:11:24.443Z,25.0
2022-08-24T06:12:17.713Z,25.1
2022-08-24T06:13:05.267Z,25.1
2022-08-24T06:13:57.454Z,25.1
2022-08-24T06:14:46.632Z,25.1
2022-08-24T06:15:33.974Z,25.1
2022-08-24T06:16:22.132Z,25.1
2022-08-24T06:17:09.772Z,25.1
2022-08-24T06:17:57.247Z,25.1
2022-08-24T06:18:44.630Z,25.1
2022-08-24T06:19:32.043Z,25.1
2022-08-24T06:20:19.395Z,25.1
2022-08-24T06:21:06.737Z,25.1
2022-08-24T06:21:54.111Z,25.1
2022-08-24T06:22:42.218Z,25.1
2022-08-24T06:23:29.628Z,25.1
2022-08-24T06:24:16.927Z,25.1
2022-08-24T06:25:04.248Z,25.1
2022-08-24T06:25:51.669Z,25.1
2022-08-24T06:26:39.010Z,25.1
2022-08-24T06:27:26.473Z,25.1
2022-08-24T06:28:13.791Z,25.1
2022-08-24T06:29:01.135Z,25.1
2022-08-24T06:29:48.445Z,25.1
2022-08-24T06:30:35.858Z,25.1
2022-08-24T06:31:23.221Z,25.1
2022-08-24T06:32:12.027Z,25.1
2022-08-24T06:32:59.493Z,25.1
2022-08-24T06:33:47.002Z,25.1
2022-08-24T06:34:34.325Z,25.1
2022-08-24T06:35:21.713Z,25.1
2022-08-24T06:36:09.341Z,25.0
2022-08-24T06:36:57.264Z,25.0
2022-08-24T06:37:44.668Z,25.0
2022-08-24T06:38:32.651Z,25.0
2022-08-24T06:39:20.716Z,25.0
2022-08-24T06:40:08.117Z,25.0
2022-08-24T06:40:55.657Z,25.0
2022-08-24T06:41:43.001Z,25.0
2022-08-24T06:42:30.311Z,25.0
2022-08-24T06:43:17.616Z,25.0
2022-08-24T06:44:04.932Z,25.0
2022-08-24T06:44:52.241Z,25.0
2022-08-24T06:45:39.550Z,25.0
2022-08-24T06:46:32.978Z,25.0
2022-08-24T06:47:20.352Z,25.0
2022-08-24T06:48:07.794Z,25.0
2022-08-24T06:48:55.195Z,25.0
2022-08-24T06:49:42.504Z,25.0
2022-08-24T06:50:29.904Z,25.0
2022-08-24T06:51:17.200Z,25.0
2022-08-24T06:52:04.521Z,25.0
2022-08-24T06:52:51.928Z,25.0
2022-08-24T06:53:39.239Z,25.1
2022-08-24T06:54:26.523Z,25.0
2022-08-24T06:55:13.962Z,25.0
2022-08-24T06:56:01.281Z,25.1
2022-08-24T06:56:48.568Z,25.1
2022-08-24T06:57:35.947Z,25.1
2022-08-24T06:58:23.273Z,25.1
2022-08-24T06:59:10.590Z,25.0
2022-08-24T06:59:57.980Z,25.0
2022-08-24T07:00:45.293Z,25.0
2022-08-24T07:01:32.640Z,25.0
2022-08-24T07:02:20.025Z,25.0
2022-08-24T07:03:07.529Z,25.0
2022-08-24T07:03:55.183Z,25.0
2022-08-24T07:04:42.512Z,25.0
2022-08-24T07:05:29.823Z,24.9
2022-08-24T07:06:17.333Z,24.9
2022-08-24T07:07:04.654Z,25.0
2022-08-24T07:07:51.976Z,24.9
2022-08-24T07:08:39.277Z,24.9
2022-08-24T07:09:26.718Z,24.9
2022-08-24T07:10:14.036Z,24.9
2022-08-24T07:11:01.386Z,24.9
2022-08-24T07:11:48.765Z,24.9
2022-08-24T07:12:36.077Z,24.9
2022-08-24T07:13:23.376Z,24.9
2022-08-24T07:14:10.812Z,24.8
2022-08-24T07:14:58.142Z,24.9
2022-08-24T07:15:45.552Z,24.8
2022-08-24T07:16:32.931Z,24.8
2022-08-24T07:17:20.282Z,24.8
2022-08-24T07:18:07.608Z,24.8
2022-08-24T07:18:54.996Z,24.8
2022-08-24T07:19:42.308Z,24.8
2022-08-24T07:20:29.817Z,24.7
2022-08-24T07:21:17.139Z,24.7
2022-08-24T07:22:04.462Z,24.8
2022-08-24T07:22:51.785Z,24.8
2022-08-24T07:23:42.087Z,24.7
2022-08-24T07:24:30.124Z,24.7
2022-08-24T07:25:17.441Z,24.7
2022-08-24T07:26:04.769Z,24.7
2022-08-24T07:26:53.833Z,24.7
2022-08-24T07:27:41.254Z,24.7
2022-08-24T07:28:32.059Z,24.7
2022-08-24T07:30:26.983Z,24.7
2022-08-24T07:31:14.284Z,24.7
2022-08-24T07:32:01.872Z,24.7
2022-08-24T07:32:49.587Z,24.7
2022-08-24T07:33:36.912Z,24.7
2022-08-24T07:34:24.225Z,24.7
2022-08-24T07:35:11.643Z,24.6
2022-08-24T07:35:59.022Z,24.7
2022-08-24T07:36:48.597Z,24.7
2022-08-24T07:37:41.338Z,24.6
2022-08-24T07:38:29.082Z,24.7
2022-08-24T07:39:16.548Z,24.7
2022-08-24T07:40:03.994Z,24.7
2022-08-24T07:41:35.433Z,24.6
2022-08-24T07:42:11.420Z,24.6
2022-08-24T07:42:46.077Z,24.6
2022-08-24T07:43:33.427Z,24.6
2022-08-24T07:44:20.735Z,24.6
2022-08-24T07:45:08.057Z,24.6
2022-08-24T07:45:55.495Z,24.6
2022-08-24T07:46:42.913Z,24.6
2022-08-24T07:47:39.692Z,24.6
2022-08-24T07:48:27.600Z,24.6
2022-08-24T07:49:33.073Z,24.6
2022-08-24T07:50:12.311Z,24.6
2022-08-24T07:50:59.750Z,24.6
2022-08-24T07:51:47.306Z,24.5
2022-08-24T07:52:34.661Z,24.5
2022-08-24T07:53:27.830Z,24.5
2022-08-24T07:54:19.371Z,24.5
2022-08-24T07:55:06.793Z,24.5
2022-08-24T07:55:54.114Z,24.5
2022-08-24T07:56:41.425Z,24.5
2022-08-24T07:57:28.856Z,24.5
2022-08-24T07:58:16.187Z,24.6
2022-08-24T07:59:03.512Z,24.5
2022-08-24T07:59:50.915Z,24.5
2022-08-24T08:00:38.223Z,24.5
2022-08-24T08:01:25.623Z,24.5
2022-08-24T08:02:13.008Z,24.5
2022-08-24T08:03:00.480Z,24.5
2022-08-24T08:03:47.943Z,24.5
2022-08-24T08:04:37.429Z,24.5
2022-08-24T08:05:24.745Z,24.5
2022-08-24T08:06:16.399Z,24.5
2022-08-24T08:07:03.861Z,24.5
2022-08-24T08:07:52.155Z,24.5
2022-08-24T08:08:39.671Z,24.5
2022-08-24T08:09:26.997Z,24.5
2022-08-24T08:10:14.329Z,24.5
2022-08-24T08:11:01.705Z,24.5
2022-08-24T08:11:49.022Z,24.4
2022-08-24T08:12:36.345Z,24.5
2022-08-24T08:13:23.756Z,24.5
2022-08-24T08:14:11.068Z,24.5
2022-08-24T08:14:58.397Z,24.5
2022-08-24T08:15:45.938Z,24.5
2022-08-24T08:16:33.333Z,24.5
2022-08-24T08:17:20.689Z,24.5
2022-08-24T08:18:08.250Z,24.5
2022-08-24T08:19:11.253Z,24.5
2022-08-24T08:19:52.899Z,24.5
2022-08-24T08:20:40.337Z,24.5
2022-08-24T08:21:27.735Z,24.5
2022-08-24T08:22:16.212Z,24.5
2022-08-24T08:23:03.640Z,24.5
2022-08-24T08:23:50.958Z,24.5
2022-08-24T08:24:38.263Z,24.5
2022-08-24T08:25:25.697Z,24.5
2022-08-24T08:26:13.068Z,24.5
2022-08-24T08:27:00.393Z,24.5
2022-08-24T08:27:47.806Z,24.5
2022-08-24T08:28:36.130Z,24.5
2022-08-24T08:29:23.886Z,24.5
2022-08-24T08:30:11.520Z,24.5
2022-08-24T08:30:58.885Z,24.5
2022-08-24T08:31:47.887Z,24.5
2022-08-24T08:32:35.483Z,24.5
2022-08-24T08:33:22.989Z,24.5
2022-08-24T08:34:10.340Z,24.5
2022-08-24T08:35:02.034Z,24.5
2022-08-24T08:35:49.853Z,24.5
2022-08-24T08:36:37.176Z,24.5
2022-08-24T08:37:26.107Z,24.5
2022-08-24T08:38:13.636Z,24.5
2022-08-24T08:39:01.045Z,24.6
2022-08-24T08:39:48.430Z,24.6
2022-08-24T08:40:35.756Z,24.6
2022-08-24T08:41:25.967Z,24.6
2022-08-24T08:42:14.065Z,24.6
2022-08-24T08:43:01.428Z,24.6
2022-08-24T08:43:48.757Z,24.6
2022-08-24T08:44:36.064Z,24.6
2022-08-24T08:45:23.486Z,24.7
2022-08-24T08:46:11.635Z,24.6
2022-08-24T08:46:58.978Z,24.7
2022-08-24T08:47:46.326Z,24.7
2022-08-24T08:48:33.688Z,24.6
2022-08-24T08:49:20.990Z,24.6
2022-08-24T08:50:08.352Z,24.6
2022-08-24T08:50:55.708Z,24.6
2022-08-24T08:51:43.040Z,24.6
2022-08-24T08:52:30.353Z,24.6
2022-08-24T08:53:17.750Z,24.6
2022-08-24T08:54:05.069Z,24.7
2022-08-24T08:54:52.397Z,24.6
2022-08-24T08:55:39.780Z,24.7
2022-08-24T08:56:27.273Z,24.6
2022-08-24T08:57:17.278Z,24.7
2022-08-24T08:58:04.781Z,24.6
2022-08-24T08:58:57.348Z,24.7
2022-08-24T08:59:46.599Z,24.6
2022-08-24T09:00:34.038Z,24.6
2022-08-24T09:01:21.436Z,24.6
2022-08-24T09:02:09.053Z,24.6
2022-08-24T09:02:56.372Z,24.6
2022-08-24T09:03:43.708Z,24.6
2022-08-24T09:04:31.056Z,24.6
2022-08-24T09:05:18.424Z,24.6
2022-08-24T09:06:05.742Z,24.6
2022-08-24T09:06:53.067Z,24.6
2022-08-24T09:07:40.448Z,24.6
2022-08-24T09:08:27.756Z,24.6
2022-08-24T09:09:15.349Z,24.6
2022-08-24T09:10:02.684Z,24.6
2022-08-24T09:10:50.010Z,24.6
2022-08-24T09:11:37.327Z,24.6
2022-08-24T09:12:24.720Z,24.6
2022-08-24T09:13:12.020Z,24.6
2022-08-24T09:13:59.321Z,24.6
2022-08-24T09:14:46.733Z,24.6
2022-08-24T09:15:34.043Z,24.6
2022-08-24T09:16:21.384Z,24.6
2022-08-24T09:17:12.976Z,24.6
2022-08-24T09:18:00.646Z,24.5
2022-08-24T09:18:47.965Z,24.6
2022-08-24T09:19:35.274Z,24.6
2022-08-24T09:20:22.581Z,24.5
2022-08-24T09:21:09.995Z,24.5
2022-08-24T09:21:57.316Z,24.5
2022-08-24T09:22:44.630Z,24.5
2022-08-24T09:23:32.021Z,24.5
2022-08-24T09:24:19.361Z,24.5
2022-08-24T09:25:06.665Z,24.5
2022-08-24T09:25:54.204Z,24.5
2022-08-24T09:26:42.924Z,24.5
2022-08-24T09:27:30.645Z,24.5
2022-08-24T09:28:18.146Z,24.5
2022-08-24T09:29:05.485Z,24.5
2022-08-24T09:29:52.944Z,24.5
2022-08-24T09:30:40.740Z,24.5
2022-08-24T09:32:20.456Z,24.5
2022-08-24T09:33:07.965Z,24.5
2022-08-24T09:33:55.452Z,24.5
2022-08-24T09:34:42.757Z,24.4
2022-08-24T09:35:30.196Z,24.5
2022-08-24T09:36:17.503Z,24.5
2022-08-24T09:37:04.824Z,24.5
2022-08-24T09:37:52.231Z,24.5
2022-08-24T09:38:39.578Z,24.5
2022-08-24T09:39:26.892Z,24.5
2022-08-24T09:40:15.137Z,24.5
2022-08-24T09:41:02.474Z,24.5
2022-08-24T09:41:49.781Z,24.5
2022-08-24T09:42:37.083Z,24.5
2022-08-24T09:43:24.530Z,24.5
2022-08-24T09:44:11.875Z,24.5
2022-08-24T09:44:59.198Z,24.5
2022-08-24T09:45:46.676Z,24.5
2022-08-24T09:46:38.618Z,24.6
2022-08-24T09:47:25.933Z,24.5
2022-08-24T09:48:15.991Z,24.5
2022-08-24T09:49:03.543Z,24.5
2022-08-24T09:49:50.974Z,24.5
2022-08-24T09:50:38.297Z,24.5
2022-08-24T09:51:26.270Z,24.5
2022-08-24T09:52:13.766Z,24.5
2022-08-24T09:53:01.097Z,24.5
2022-08-24T09:53:48.413Z,24.5
2022-08-24T09:54:35.815Z,24.5
2022-08-24T09:55:23.149Z,24.5
2022-08-24T09:56:10.557Z,24.5
2022-08-24T09:57:11.569Z,24.5
2022-08-24T09:58:01.013Z,24.5
2022-08-24T09:58:48.972Z,24.5
2022-08-24T09:59:36.344Z,24.5
2022-08-24T10:00:23.656Z,24.5
2022-08-24T10:01:11.459Z,24.5
2022-08-24T10:01:58.923Z,24.5
2022-08-24T10:02:46.403Z,24.5
2022-08-24T10:03:37.758Z,24.6
2022-08-24T10:04:25.963Z,24.6
2022-08-24T10:05:13.484Z,24.6
2022-08-24T10:06:01.020Z,24.6
2022-08-24T10:06:48.429Z,24.6
2022-08-24T10:07:35.860Z,24.6
2022-08-24T10:08:23.167Z,24.5
2022-08-24T10:09:10.478Z,24.6
2022-08-24T10:09:57.909Z,24.6
2022-08-24T10:10:45.217Z,24.6
2022-08-24T10:18:17.681Z,24.6
2022-08-24T10:25:50.005Z,24.5
2022-08-24T10:33:22.333Z,24.3
2022-08-24T10:40:54.668Z,24.1
2022-08-24T10:48:27.029Z,24.1
2022-08-24T10:54:29.520Z,24.0
2022-08-24T10:55:16.824Z,23.9
2022-08-24T10:56:04.145Z,23.9
2022-08-24T10:56:51.469Z,23.9
2022-08-24T10:57:38.789Z,23.9
2022-08-24T10:58:26.300Z,24.0
2022-08-24T10:59:13.614Z,24.0
2022-08-24T11:00:00.970Z,24.0
2022-08-24T11:00:48.274Z,24.1
2022-08-24T11:01:35.657Z,24.1
2022-08-24T11:02:23.075Z,24.1
2022-08-24T11:03:10.443Z,24.1
2022-08-24T11:03:57.752Z,24.1
2022-08-24T11:04:45.063Z,24.1
2022-08-24T11:05:32.371Z,24.1
2022-08-24T11:06:19.684Z,24.1
2022-08-24T11:07:06.994Z,24.1
2022-08-24T11:07:54.292Z,24.1
2022-08-24T11:08:41.604Z,24.1
2022-08-24T11:09:29.147Z,24.1
2022-08-24T11:10:16.458Z,24.2
2022-08-24T11:11:04.037Z,24.2
2022-08-24T11:11:51.398Z,24.2
2022-08-24T11:12:38.712Z,24.2
2022-08-24T11:13:26.034Z,24.2
2022-08-24T11:14:13.334Z,24.2
2022-08-24T11:15:00.639Z,24.2
2022-08-24T11:15:47.947Z,24.3
2022-08-24T11:16:35.376Z,24.3
2022-08-24T11:17:22.777Z,24.2
2022-08-24T11:18:10.081Z,24.3
2022-08-24T11:18:57.400Z,24.3
2022-08-24T11:19:44.751Z,24.3
2022-08-24T11:20:32.071Z,24.3
2022-08-24T11:21:19.399Z,24.3
2022-08-24T11:22:06.880Z,24.3
2022-08-24T11:22:54.183Z,24.3
2022-08-24T11:23:41.484Z,24.3
2022-08-24T11:24:28.820Z,24.3
2022-08-24T11:25:16.168Z,24.3
2022-08-24T11:26:03.624Z,24.3
2022-08-24T11:26:53.626Z,24.3
2022-08-24T11:27:42.547Z,24.3
2022-08-24T11:28:29.961Z,24.3
2022-08-24T11:29:17.297Z,24.3
2022-08-24T11:30:04.613Z,24.3
2022-08-24T11:30:52.045Z,24.3
2022-08-24T11:31:39.379Z,24.3
2022-08-24T11:32:26.704Z,24.3
2022-08-24T11:33:14.154Z,24.3
2022-08-24T11:34:01.505Z,24.4
2022-08-24T11:34:48.881Z,24.4
2022-08-24T11:35:36.244Z,24.4
2022-08-24T11:36:23.587Z,24.4
2022-08-24T11:37:11.341Z,24.4
2022-08-24T11:37:58.711Z,24.4
2022-08-24T11:38:46.095Z,24.4
2022-08-24T11:39:33.404Z,24.4
2022-08-24T11:40:20.751Z,24.4
2022-08-24T11:41:08.101Z,24.4
2022-08-24T11:41:57.160Z,24.4
2022-08-24T11:42:44.637Z,24.4
2022-08-24T11:43:32.027Z,24.4
2022-08-24T11:44:19.389Z,24.4
2022-08-24T11:45:07.116Z,24.4
2022-08-24T11:45:54.697Z,24.4
2022-08-24T11:46:42.299Z,24.4
2022-08-24T11:47:29.679Z,24.4
2022-08-24T11:48:16.980Z,24.4
2022-08-24T11:49:04.285Z,24.4
2022-08-24T11:49:51.651Z,24.4
2022-08-24T11:50:38.951Z,24.5
2022-08-24T11:51:26.264Z,24.5
2022-08-24T11:52:13.580Z,24.5
2022-08-24T11:53:00.923Z,24.5
2022-08-24T11:53:48.511Z,24.5
2022-08-24T11:54:37.293Z,24.5
2022-08-24T11:55:25.738Z,24.5
2022-08-24T11:56:14.543Z,24.5
2022-08-24T11:57:03.643Z,24.5
2022-08-24T11:57:55.728Z,24.4
2022-08-24T11:58:43.291Z,24.5
2022-08-24T11:59:30.601Z,24.4
2022-08-24T12:00:17.908Z,24.4
2022-08-24T12:01:05.341Z,24.4
2022-08-24T12:01:52.726Z,24.5
2022-08-24T12:02:40.265Z,24.5
2022-08-24T12:03:27.752Z,24.5
2022-08-24T12:04:15.445Z,24.5
2022-08-24T12:05:02.758Z,24.5
2022-08-24T12:05:50.114Z,24.5
2022-08-24T12:06:37.445Z,24.5
2022-08-24T12:07:25.242Z,24.5
2022-08-24T12:08:12.567Z,24.5
2022-08-24T12:09:00.119Z,24.6
2022-08-24T12:09:53.948Z,24.6
2022-08-24T12:10:41.294Z,24.6
2022-08-24T12:11:28.855Z,24.6
2022-08-24T12:12:16.349Z,24.6
2022-08-24T12:13:03.666Z,24.7
2022-08-24T12:13:51.094Z,24.7
2022-08-24T12:14:38.402Z,24.7
2022-08-24T12:15:25.745Z,24.7
2022-08-24T12:16:13.212Z,24.7
2022-08-24T12:17:00.573Z,24.7
2022-08-24T12:17:47.905Z,24.7
2022-08-24T12:18:35.356Z,24.6
2022-08-24T12:19:22.661Z,24.6
2022-08-24T12:20:10.066Z,24.7
2022-08-24T12:20:57.416Z,24.6
2022-08-24T12:21:44.726Z,24.6
2022-08-24T12:22:32.078Z,24.6
2022-08-24T12:23:19.464Z,24.6
2022-08-24T12:24:06.800Z,24.6
2022-08-24T12:24:54.172Z,24.6
2022-08-24T12:25:41.547Z,24.6
2022-08-24T12:26:28.915Z,24.6
2022-08-24T12:27:16.272Z,24.6
2022-08-24T12:28:03.857Z,24.6
2022-08-24T12:28:54.467Z,24.6
2022-08-24T12:29:42.150Z,24.6
2022-08-24T12:30:29.532Z,24.7
2022-08-24T12:31:16.963Z,24.6
2022-08-24T12:32:04.309Z,24.6
2022-08-24T12:32:51.620Z,24.6
2022-08-24T12:33:38.927Z,24.6
2022-08-24T12:34:26.407Z,24.6
2022-08-24T12:35:13.717Z,24.6
2022-08-24T12:36:01.021Z,24.6
2022-08-24T12:36:48.336Z,24.6
2022-08-24T12:37:35.654Z,24.6
2022-08-24T12:38:22.970Z,24.5
2022-08-24T12:39:10.277Z,24.5
2022-08-24T12:39:57.646Z,24.5
2022-08-24T12:40:45.208Z,24.6
2022-08-24T12:41:32.509Z,24.5
2022-08-24T12:42:19.826Z,24.5
2022-08-24T12:43:07.149Z,24.5
2022-08-24T12:43:54.466Z,24.5
2022-08-24T12:44:41.800Z,24.5
2022-08-24T12:45:29.117Z,24.5
2022-08-24T12:46:16.456Z,24.5
2022-08-24T12:47:03.813Z,24.5
2022-08-24T12:47:51.139Z,24.5
2022-08-24T12:48:38.499Z,24.5
2022-08-24T12:49:25.846Z,24.5
2022-08-24T12:50:13.158Z,24.5
2022-08-24T12:51:00.538Z,24.5
2022-08-24T12:51:47.844Z,24.5
2022-08-24T12:52:35.201Z,24.5
2022-08-24T12:53:22.533Z,24.5
2022-08-24T12:54:10.282Z,24.5
2022-08-24T12:54:57.841Z,24.4
2022-08-24T12:55:49.030Z,24.4
2022-08-24T12:56:39.618Z,24.4
2022-08-24T12:57:27.014Z,24.4
2022-08-24T12:58:32.195Z,24.4
2022-08-24T12:59:11.623Z,24.4
2022-08-24T12:59:59.084Z,24.4
2022-08-24T13:00:46.423Z,24.4
2022-08-24T13:01:34.137Z,24.4
2022-08-24T13:02:21.632Z,24.5
2022-08-24T13:03:09.279Z,24.5
2022-08-24T13:03:56.625Z,24.5
2022-08-24T13:04:46.371Z,24.5
2022-08-24T13:05:33.776Z,24.5
2022-08-24T13:06:21.085Z,24.5
2022-08-24T13:07:08.393Z,24.5
2022-08-24T13:07:55.841Z,24.5
2022-08-24T13:08:43.149Z,24.5
2022-08-24T13:09:33.448Z,24.5
2022-08-24T13:10:20.848Z,24.5
2022-08-24T13:11:08.170Z,24.5
2022-08-24T13:11:55.486Z,24.5
2022-08-24T13:12:42.913Z,24.5
2022-08-24T13:13:30.285Z,24.5
2022-08-24T13:14:17.597Z,24.5
2022-08-24T13:15:05.028Z,24.5
2022-08-24T13:15:52.387Z,24.5
2022-08-24T13:16:39.776Z,24.5
2022-08-24T13:17:27.228Z,24.5
2022-08-24T13:18:14.549Z,24.5
2022-08-24T13:19:01.872Z,24.5
2022-08-24T13:19:49.291Z,24.5
2022-08-24T13:20:36.607Z,24.5
2022-08-24T13:21:23.925Z,24.5
2022-08-24T13:22:11.347Z,24.5
2022-08-24T13:22:58.660Z,24.4
2022-08-24T13:23:45.987Z,24.5
2022-08-24T13:24:33.410Z,24.4
2022-08-24T13:25:20.721Z,24.5
2022-08-24T13:26:08.032Z,24.4
2022-08-24T13:26:55.467Z,24.4
2022-08-24T13:27:42.776Z,24.4
2022-08-24T13:28:30.104Z,24.5
2022-08-24T13:29:17.517Z,24.4
2022-08-24T13:30:04.831Z,24.4
2022-08-24T13:30:52.180Z,24.4
2022-08-24T13:31:39.638Z,24.4
2022-08-24T13:32:31.252Z,24.4
2022-08-24T13:33:18.789Z,24.4
2022-08-24T13:34:06.185Z,24.4
2022-08-24T13:34:53.508Z,24.4
2022-08-24T13:35:40.858Z,24.4
2022-08-24T13:36:28.238Z,24.4
2022-08-24T13:37:15.560Z,24.4
2022-08-24T13:38:02.979Z,24.4
2022-08-24T13:38:52.369Z,24.4
2022-08-24T13:39:39.838Z,24.4
2022-08-24T13:40:28.200Z,24.4
2022-08-24T13:41:15.688Z,24.4
2022-08-24T13:42:03.179Z,24.4
2022-08-24T13:42:50.489Z,24.5
2022-08-24T13:43:37.801Z,24.5
2022-08-24T13:44:25.211Z,24.5
2022-08-24T13:45:12.525Z,24.5
2022-08-24T13:45:59.844Z,24.5
2022-08-24T13:46:47.336Z,24.5
2022-08-24T13:47:34.677Z,24.6
2022-08-24T13:48:21.998Z,24.6
2022-08-24T13:49:09.388Z,24.6
2022-08-24T13:49:56.702Z,24.6
2022-08-24T13:50:44.012Z,24.6
2022-08-24T13:51:31.427Z,24.6
2022-08-24T13:52:18.851Z,24.6
2022-08-24T13:53:06.170Z,24.6
2022-08-24T13:53:53.553Z,24.6
2022-08-24T13:54:44.375Z,24.6
2022-08-24T13:55:32.699Z,24.6
2022-08-24T13:56:20.025Z,24.7
2022-08-24T13:57:07.705Z,24.7
2022-08-24T13:57:55.090Z,24.7
2022-08-24T13:58:43.504Z,24.7
2022-08-24T14:00:09.006Z,24.7
2022-08-24T14:01:01.737Z,24.7
2022-08-24T14:01:49.344Z,24.6
2022-08-24T14:02:36.608Z,24.6
2022-08-24T14:03:23.837Z,24.6
2022-08-24T14:04:11.059Z,24.6
2022-08-24T14:04:58.495Z,24.6
2022-08-24T14:05:45.765Z,24.7
2022-08-24T14:06:33.054Z,24.7
2022-08-24T14:07:20.943Z,24.7
2022-08-24T14:08:08.420Z,24.7
2022-08-24T14:08:55.627Z,24.7
2022-08-24T14:09:42.835Z,24.7
2022-08-24T14:10:30.123Z,24.7
2022-08-24T14:11:17.332Z,24.7
2022-08-24T14:12:07.406Z,24.7
2022-08-24T14:12:54.793Z,24.7
2022-08-24T14:13:42.212Z,24.7
2022-08-24T14:14:29.415Z,24.7
2022-08-24T14:15:17.157Z,24.7
2022-08-24T14:16:04.545Z,24.7
2022-08-24T14:16:52.023Z,24.7
2022-08-24T14:17:39.284Z,24.7
2022-08-24T14:18:26.510Z,24.7
2022-08-24T14:19:13.804Z,24.7
2022-08-24T14:20:01.736Z,24.8
2022-08-24T14:20:48.952Z,24.8
2022-08-24T14:21:36.353Z,24.7
2022-08-24T14:22:23.548Z,24.7
2022-08-24T14:23:10.752Z,24.8
2022-08-24T14:23:58.150Z,24.8
2022-08-24T14:24:46.328Z,24.8
2022-08-24T14:25:33.743Z,24.8
2022-08-24T14:26:21.097Z,24.8
2022-08-24T14:27:08.307Z,24.8
2022-08-24T14:27:55.529Z,24.8
2022-08-24T14:28:42.941Z,24.8
2022-08-24T14:29:30.163Z,24.8
2022-08-24T14:30:17.393Z,24.8
2022-08-24T14:31:04.928Z,24.8
2022-08-24T14:31:52.184Z,24.8
2022-08-24T14:32:39.393Z,24.8
2022-08-24T14:33:27.307Z,24.8
2022-08-24T14:34:15.641Z,24.8
2022-08-24T14:35:02.951Z,24.8
2022-08-24T14:35:50.365Z,24.8
2022-08-24T14:36:37.824Z,24.8
2022-08-24T14:37:25.031Z,24.8
2022-08-24T14:38:12.671Z,24.8
2022-08-24T14:39:00.113Z,24.8
2022-08-24T14:39:47.563Z,24.8
2022-08-24T14:40:37.268Z,24.8
2022-08-24T14:41:24.886Z,24.8
2022-08-24T14:42:12.321Z,24.8
2022-08-24T14:42:59.530Z,24.8
2022-08-24T14:43:46.744Z,24.8
2022-08-24T14:44:34.162Z,24.8
2022-08-24T14:45:21.374Z,24.8
2022-08-24T14:46:09.019Z,24.9
2022-08-24T14:46:56.634Z,24.9
2022-08-24T14:47:43.996Z,24.8
2022-08-24T14:48:31.200Z,24.8
2022-08-24T14:49:18.561Z,24.8
2022-08-24T14:50:10.559Z,24.9
2022-08-24T14:50:59.817Z,24.8
2022-08-24T14:51:47.257Z,24.8
2022-08-24T14:52:34.465Z,24.8
2022-08-24T14:53:21.806Z,24.8
2022-08-24T14:54:09.095Z,24.8
2022-08-24T14:54:56.297Z,24.8
2022-08-24T14:55:43.494Z,24.8
2022-08-24T14:56:30.936Z,24.8
2022-08-24T14:57:18.239Z,24.8
2022-08-24T14:58:05.581Z,24.8
2022-08-24T14:58:52.997Z,24.8
2022-08-24T14:59:40.313Z,24.8
2022-08-24T15:00:27.704Z,24.8
2022-08-24T15:01:15.248Z,24.8
2022-08-24T15:02:02.830Z,24.8
2022-08-24T15:02:50.141Z,24.8
2022-08-24T15:03:37.568Z,24.8
2022-08-24T15:04:36.118Z,24.9
2022-08-24T15:05:22.229Z,24.8
2022-08-24T15:06:26.241Z,24.8
2022-08-24T15:07:06.913Z,24.8
2022-08-24T15:07:54.292Z,24.8
2022-08-24T15:08:41.604Z,24.8
2022-08-24T15:09:28.931Z,24.8
2022-08-24T15:10:16.370Z,24.8
2022-08-24T15:11:03.663Z,24.8
2022-08-24T15:11:51.477Z,24.8
2022-08-24T15:12:38.877Z,24.7